Time,TemperatureF,DewpointF,PressureIn,WindDirection,WindDirectionDegrees,WindSpeedMPH,WindSpeedGustMPH,Humidity,HourlyPrecipIn,Conditions,Clouds,dailyrainin,SolarRadiationWatts/m^2,SoftwareType,DateUTC
2013-02-02 12:00:00,49.0,16.0,-100.00,NW,308,0.0,2.0,26,-99.99,,,0.00,634.299988,,2013-02-02 19:00:00,
2013-02-02 12:52:00,49.0,16.0,-100.00,NW,308,0.0,2.0,26,-99.99,,,0.00,634.299988,,2013-02-02 19:52:00,
2013-02-02 13:00:00,49.0,10.0,-100.00,NW,307,1.0,3.0,20,-99.99,,,0.00,644.400024,,2013-02-02 20:00:00,
2013-02-02 13:52:00,49.0,10.0,-100.00,NW,307,1.0,3.0,20,-99.99,,,0.00,644.400024,,2013-02-02 20:52:00,
2013-02-02 14:00:00,48.0,12.0,-100.00,WNW,302,1.0,3.0,23,-99.99,,,0.00,514.000000,,2013-02-02 21:00:00,
2013-02-02 14:52:00,48.0,12.0,-100.00,WNW,302,1.0,3.0,23,-99.99,,,0.00,514.000000,,2013-02-02 21:52:00,
2013-02-02 15:00:00,46.0,10.0,-100.00,WNW,303,1.0,3.0,23,-99.99,,,0.00,369.100006,,2013-02-02 22:00:00,
2013-02-02 15:52:00,46.0,10.0,-100.00,WNW,303,1.0,3.0,23,-99.99,,,0.00,369.100006,,2013-02-02 22:52:00,
2013-02-02 16:00:00,42.0,12.0,-100.00,West,266,0.0,3.0,29,-99.99,,,0.00,115.400002,,2013-02-02 23:00:00,
2013-02-02 16:52:00,42.0,12.0,-100.00,West,266,0.0,3.0,29,-99.99,,,0.00,115.400002,,2013-02-02 23:52:00,
2013-02-02 17:00:00,37.0,12.0,-100.00,South,169,1.0,2.0,36,-99.99,,,0.00,38.200001,,2013-02-03 00:00:00,
2013-02-02 17:52:00,37.0,12.0,-100.00,South,169,1.0,2.0,36,-99.99,,,0.00,38.200001,,2013-02-03 00:52:00,
2013-02-02 18:00:00,31.0,12.0,-100.00,SSE,149,1.0,3.0,45,-99.99,,,0.00,3.700000,,2013-02-03 01:00:00,
2013-02-02 18:52:00,31.0,12.0,-100.00,SSE,149,1.0,3.0,45,-99.99,,,0.00,3.700000,,2013-02-03 01:52:00,
2013-02-02 19:00:00,28.0,13.0,-100.00,SE,135,0.0,2.0,52,-99.99,,,0.00,0.000000,,2013-02-03 02:00:00,
2013-02-02 19:52:00,28.0,13.0,-100.00,SE,135,0.0,2.0,52,-99.99,,,0.00,0.000000,,2013-02-03 02:52:00,
2013-02-02 20:00:00,26.0,12.0,-100.00,SE,141,0.0,1.0,57,-99.99,,,0.00,0.000000,,2013-02-03 03:00:00,
2013-02-02 20:52:00,26.0,12.0,-100.00,SE,141,0.0,1.0,57,-99.99,,,0.00,0.000000,,2013-02-03 03:52:00,
2013-02-02 21:00:00,23.0,12.0,-100.00,SSE,166,0.0,1.0,60,-99.99,,,-99.99,0.000000,,2013-02-03 04:00:00,
2013-02-02 21:52:00,23.0,12.0,-100.00,SSE,166,0.0,1.0,60,-99.99,,,-99.99,0.000000,,2013-02-03 04:52:00,